Eastsound, WA

1:10 PM PDT on October 25, 2014 (GMT -0700)
Orcas Island | Change Station
CLOSE
Current Station
Airport
Location: Eastsound,
Elevation: 30 ft
Nearby Weather Stations
Active Advisory: Wind Advisory

Elev 30 ft 48.71 °N, 122.91 °W | Updated 15 minutes ago

Partly Cloudy
Partly Cloudy
50 °F
Feels Like 50 °F
N
0
Wind Variable Wind from North

Today
High -- | Low -- °F
--% Chance of Precip.
Yesterday
High -- | Low -- °F
Precip. -- in
7:47 AM 6:03 PM
Waxing Crescent, 4% visible
Pressure 29.39 in
Visibility 7.0 miles
Clouds Few 3100 ft
Few 4000 ft
Dew Point 48 °F
Humidity 94%
Rainfall 0.22 in
Snow Depth Not available.
UV 3 out of 12
Pollen .40 out of 12
Air Quality Not available.
Flu Activity Sporadic
METAR KORS 251955Z AUTO 00000KT 7SM -RA FEW031 FEW040 10/09 A2939 RMK AO2

More Conditions Fewer Conditions

Pressure 29.39 in
Visibility 7.0 miles
Clouds Few 3100 ft
Few 4000 ft
Dew Point 48 °F
Humidity 94%
Rainfall 0.22 in
Snow Depth Not available.
UV 3 out of 12
Pollen .40 out of 12
Air Quality Not available.
Flu Activity Sporadic
METAR KORS 251955Z AUTO 00000KT 7SM -RA FEW031 FEW040 10/09 A2939 RMK AO2

More Conditions Fewer Conditions

10-Day Weather Forecast

Almanac

Astronomy

Oct. 25, 2014 Rise Set
Actual Time 7:47 AM PDT 6:03 PM PDT
Civil Twilight 7:14 AM PDT 6:35 PM PDT
Nautical Twilight 6:38 AM PDT 7:12 PM PDT
Astronomical Twilight 6:01 AM PDT 7:48 PM PDT
Moon 9:38 AM PDT 7:22 PM PDT
Length of Visible Light 11h 20m
Length of Day
10h 15m
Tomorrow will be 3m 20s shorter.
Waxing Crescent, 4% of the Moon is Illuminated
Today
Waxing Crescent
Oct 30
First Quarter
Nov 6
Full
Nov 14
Last Quarter
Nov 22
New

Today's Extremes

State Highs State Lows

Community

WunderPhotos

Upload Photos

1,764,976 photos uploaded!

Nearby

Snow Depth

Station Depth Elevation
Mf Nooksack 2 in 4980 ft
Elbow Lake 0 in 3200 ft
Wells Creek 0 in 4200 ft
Dungeness 0 in 4100 ft
Alpine Meadows 0 in 3500 ft

Earthquake Activity

City Distance Mag. Time & Date
Birch Bay, Washington 9 miles 2.8 3:02 AM PDT
2014-10-24
Minimum magnitude displayed is 2.5.

Coastal Water Temperatures

Place Temperature
Port Townsend, WA 52.0 °F
Friday Harbor, WA 51.1 °F
Port Angeles, WA 57.0 °F

Nearby Weather Stations